This is the latest recevied weather packets stored in our database for station/object DB0DUS-10. If no packets are shown the sender has not sent any weather packets the latest 10 day(s).
| Time | Temp. | Humidity | Pressure | Rain* | Wind** | Luminosity | Snow |
|---|---|---|---|---|---|---|---|
| 1777829586 | 17.78° C | 74% | 1012 hPa | 0 mm | - | - | - |
| 1777828086 | 17.22° C | 74% | 1011.8 hPa | 0 mm | - | - | - |
| 1777826587 | 17.22° C | 80% | 1012.1 hPa | 0 mm | - | - | - |
| 1777826286 | 16.67° C | 80% | 1012.2 hPa | 0 mm | - | - | - |
| 1777825087 | 16.67° C | 81% | 1012.2 hPa | 0 mm | - | - | - |
| 1777824486 | 16.67° C | 82% | 1012.2 hPa | 0 mm | - | - | - |
| 1777823587 | 16.67° C | 82% | 1012.1 hPa | 0.25 mm | - | - | - |
| 1777822686 | 16.11° C | 82% | 1012.2 hPa | 0.25 mm | - | - | - |
| 1777822087 | 16.11° C | 82% | 1012.3 hPa | 0.25 mm | - | - | - |
| 1777820886 | 16.11° C | 81% | 1012.3 hPa | 0.25 mm | - | - | - |
| 1777820587 | 16.11° C | 80% | 1012.3 hPa | 0.25 mm | - | - | - |
| 1777819086 | 16.67° C | 76% | 1012.3 hPa | 0 mm | - | - | - |
| 1777817587 | 16.67° C | 73% | 1012.3 hPa | 0 mm | - | - | - |
| 1777817286 | 16.67° C | 73% | 1012.4 hPa | 0 mm | - | - | - |
| 1777816088 | 17.78° C | 68% | 1012.4 hPa | 0 mm | - | - | - |
| 1777815486 | 17.78° C | 67% | 1012.3 hPa | 0 mm | - | - | - |
| 1777814587 | 18.33° C | 65% | 1012.4 hPa | 0 mm | - | - | - |
| 1777813686 | 18.89° C | 61% | 1012.4 hPa | 0 mm | - | - | - |
| 1777813087 | 20.56° C | 47% | 1012.4 hPa | 0 mm | - | - | - |
| 1777811886 | 20.56° C | 43% | 1012.3 hPa | 0 mm | - | - | - |
| 1777811587 | 21.11° C | 42% | 1012.3 hPa | 0 mm | - | - | - |
| 1777810086 | 22.22° C | 40% | 1012.2 hPa | 0 mm | - | - | - |
| 1777808587 | 21.11° C | 38% | 1012.2 hPa | 0 mm | - | - | - |
| 1777808286 | 21.11° C | 38% | 1012.2 hPa | 0 mm | - | - | - |
| 1777807087 | 21.67° C | 36% | 1012.1 hPa | 0 mm | - | - | - |
* Rain latest hour (hover to see other rain measurements)
** Current wind speed in m/s (hover to see current wind gust speed)